createdAt,value
2023-04-21T00:00:34.669Z,26.15
2023-04-21T00:03:03.521Z,24.63
2023-04-21T00:05:33.357Z,25.48
2023-04-21T00:08:01.834Z,25.67
2023-04-21T00:10:30.263Z,25.95
2023-04-21T00:12:58.672Z,26.30
2023-04-21T00:15:28.510Z,25.38
2023-04-21T00:17:58.149Z,26.42
2023-04-21T00:20:26.865Z,24.80
2023-04-21T00:22:55.416Z,26.15
2023-04-21T00:25:24.013Z,25.65
2023-04-21T00:27:52.562Z,26.77
2023-04-21T00:30:20.986Z,26.85
2023-04-21T00:32:51.057Z,25.55
2023-04-21T00:35:19.569Z,25.23
2023-04-21T00:37:50.146Z,26.75
2023-04-21T00:40:18.607Z,26.20
2023-04-21T00:42:47.065Z,26.58
2023-04-21T00:45:16.008Z,27.90
2023-04-21T00:47:44.610Z,26.77
2023-04-21T00:50:14.702Z,26.45
2023-04-21T00:52:43.876Z,28.08
2023-04-21T00:55:12.903Z,27.55
2023-04-21T00:57:41.523Z,27.77
2023-04-21T01:00:10.594Z,27.50
2023-04-21T01:02:39.959Z,26.80
2023-04-21T01:05:09.307Z,29.02
2023-04-21T01:07:39.317Z,27.38
2023-04-21T01:10:08.431Z,28.30
2023-04-21T01:12:43.640Z,27.80
2023-04-21T01:15:12.927Z,28.30
2023-04-21T01:17:41.770Z,27.90
2023-04-21T01:20:11.452Z,29.27
2023-04-21T01:22:42.287Z,28.08
2023-04-21T01:25:11.349Z,28.38
2023-04-21T01:27:39.750Z,29.23
2023-04-21T01:30:08.908Z,27.38
2023-04-21T01:32:37.644Z,28.25
2023-04-21T01:35:06.652Z,28.65
2023-04-21T01:37:35.579Z,30.52
2023-04-21T01:40:07.410Z,30.10
2023-04-21T01:42:36.539Z,28.67
2023-04-21T01:45:05.316Z,30.05
2023-04-21T01:47:33.802Z,29.10
2023-04-21T01:50:02.343Z,29.60
2023-04-21T01:52:30.741Z,29.85
2023-04-21T01:54:59.198Z,31.35
2023-04-21T01:57:29.002Z,31.02
2023-04-21T01:59:57.609Z,31.40
2023-04-21T02:02:26.270Z,31.98
2023-04-21T02:04:55.184Z,30.52
2023-04-21T02:07:23.591Z,30.48
2023-04-21T02:09:52.034Z,31.88
2023-04-21T02:12:20.451Z,30.70
2023-04-21T02:14:50.280Z,31.00
2023-04-21T02:17:18.727Z,31.25
2023-04-21T02:19:47.885Z,30.92
2023-04-21T02:22:16.291Z,30.15
2023-04-21T02:24:44.700Z,31.65
2023-04-21T02:27:13.115Z,31.98
2023-04-21T02:29:41.564Z,32.90
2023-04-21T02:32:22.125Z,32.35
2023-04-21T02:34:53.755Z,32.30
2023-04-21T02:37:22.375Z,34.10
2023-04-21T02:39:50.936Z,36.40
2023-04-21T02:42:19.360Z,37.80
2023-04-21T02:44:47.791Z,39.25
2023-04-21T02:47:18.398Z,39.53
2023-04-21T02:49:46.847Z,38.20
2023-04-21T02:52:16.037Z,40.03
2023-04-21T02:54:44.502Z,37.95
2023-04-21T02:57:12.920Z,39.30
2023-04-21T02:59:41.391Z,37.65
2023-04-21T03:02:09.873Z,39.95
2023-04-21T03:04:39.870Z,39.97
2023-04-21T03:07:13.639Z,40.85
2023-04-21T03:09:42.232Z,41.28
2023-04-21T03:12:10.707Z,40.88
2023-04-21T03:14:39.158Z,40.85
2023-04-21T03:17:07.724Z,38.72
2023-04-21T03:19:36.166Z,37.88
2023-04-21T03:22:06.492Z,37.97
2023-04-21T03:24:34.961Z,37.00
2023-04-21T03:27:03.684Z,37.83
2023-04-21T03:29:32.214Z,35.85
2023-04-21T03:32:00.727Z,35.03
2023-04-21T03:34:29.198Z,35.10
2023-04-21T03:36:57.644Z,34.55
2023-04-21T03:39:27.552Z,33.08
2023-04-21T03:41:55.980Z,32.65
2023-04-21T03:44:27.245Z,33.50
2023-04-21T03:46:55.711Z,31.92
2023-04-21T03:49:24.142Z,28.83
2023-04-21T03:51:52.641Z,31.10
2023-04-21T03:54:21.202Z,28.52
2023-04-21T03:56:50.997Z,29.90
2023-04-21T03:59:19.639Z,29.67
2023-04-21T04:01:48.162Z,29.75
2023-04-21T04:04:16.764Z,29.00
2023-04-21T04:06:45.374Z,29.95
2023-04-21T04:09:13.809Z,31.08
2023-04-21T04:11:42.227Z,30.45
2023-04-21T04:14:12.100Z,29.85
2023-04-21T04:16:41.498Z,30.63
2023-04-21T04:19:10.265Z,29.85
2023-04-21T04:21:38.728Z,29.30
2023-04-21T04:24:08.333Z,31.45
2023-04-21T04:26:38.455Z,29.63
2023-04-21T04:29:10.564Z,30.23
2023-04-21T04:31:40.710Z,30.75
2023-04-21T04:34:09.678Z,31.13
2023-04-21T04:36:38.155Z,30.13
2023-04-21T04:39:08.932Z,30.83
2023-04-21T04:41:38.360Z,30.75
2023-04-21T04:44:07.893Z,30.02
2023-04-21T04:46:36.511Z,28.70
2023-04-21T04:49:06.491Z,30.75
2023-04-21T04:51:35.081Z,29.30
2023-04-21T04:54:03.707Z,30.90
2023-04-21T04:56:32.198Z,28.55
2023-04-21T04:59:00.753Z,30.15
2023-04-21T05:01:30.863Z,30.05
2023-04-21T05:03:59.981Z,28.85
2023-04-21T05:06:30.234Z,29.27
2023-04-21T05:08:58.666Z,27.83
2023-04-21T05:11:27.148Z,27.77
2023-04-21T05:13:55.687Z,29.92
2023-04-21T05:16:24.208Z,29.67
2023-04-21T05:18:54.088Z,28.50
2023-04-21T05:21:27.787Z,28.75
2023-04-21T05:23:58.091Z,26.30
2023-04-21T05:26:27.577Z,26.88
2023-04-21T05:28:56.660Z,27.38
2023-04-21T05:31:25.252Z,27.60
2023-04-21T05:33:53.742Z,27.50
2023-04-21T05:36:22.180Z,26.95
2023-04-21T05:38:50.625Z,26.92
2023-04-21T05:41:22.695Z,26.77
2023-04-21T05:43:51.279Z,27.25
2023-04-21T05:46:19.785Z,26.92
2023-04-21T05:48:48.290Z,27.33
2023-04-21T05:51:17.274Z,27.27
2023-04-21T05:53:46.357Z,27.23
2023-04-21T05:56:15.109Z,28.88
2023-04-21T05:58:44.957Z,26.27
2023-04-21T06:01:13.526Z,27.58
2023-04-21T06:03:42.149Z,25.63
2023-04-21T06:06:11.587Z,26.65
2023-04-21T06:08:40.082Z,26.15
2023-04-21T06:11:08.498Z,26.55
2023-04-21T06:13:38.601Z,27.23
2023-04-21T06:16:09.322Z,26.98
2023-04-21T06:18:37.831Z,26.88
2023-04-21T06:21:06.695Z,26.63
2023-04-21T06:23:35.226Z,26.90
2023-04-21T06:26:05.227Z,26.95
2023-04-21T06:28:34.156Z,27.70
2023-04-21T06:31:03.036Z,27.58
2023-04-21T06:33:33.048Z,27.75
2023-04-21T06:36:03.491Z,28.67
2023-04-21T06:38:31.977Z,28.83
2023-04-21T06:41:00.816Z,30.25
2023-04-21T06:43:29.296Z,28.60
2023-04-21T06:45:57.756Z,28.35
2023-04-21T06:48:26.521Z,29.30
2023-04-21T06:50:56.850Z,27.98
2023-04-21T06:53:27.191Z,27.42
2023-04-21T06:55:55.914Z,28.60
2023-04-21T06:58:24.626Z,28.77
2023-04-21T07:00:53.128Z,29.27
2023-04-21T07:03:21.897Z,29.30
2023-04-21T07:05:50.513Z,28.65
2023-04-21T07:08:20.317Z,27.90
2023-04-21T07:10:51.169Z,28.23
2023-04-21T07:13:19.677Z,28.63
2023-04-21T07:15:48.281Z,27.33
2023-04-21T07:18:17.012Z,27.63
2023-04-21T07:20:45.451Z,28.50
2023-04-21T07:23:13.930Z,28.42
2023-04-21T07:25:43.762Z,27.92
2023-04-21T07:28:15.118Z,28.27
2023-04-21T07:30:43.680Z,27.35
2023-04-21T07:33:12.276Z,28.55
2023-04-21T07:35:40.809Z,30.20
2023-04-21T07:38:09.321Z,27.77
2023-04-21T07:40:38.271Z,29.40
2023-04-21T07:43:08.164Z,29.50
2023-04-21T07:45:36.603Z,28.08
2023-04-21T07:48:06.347Z,27.55
2023-04-21T07:50:35.674Z,27.45
2023-04-21T07:53:04.212Z,26.75
2023-04-21T07:55:32.635Z,28.15
2023-04-21T07:58:01.106Z,27.40
2023-04-21T08:00:31.154Z,27.88
2023-04-21T08:02:59.789Z,27.00
2023-04-21T08:05:33.186Z,26.20
2023-04-21T08:08:03.569Z,24.80
2023-04-21T08:10:32.076Z,24.95
2023-04-21T08:13:00.545Z,25.73
2023-04-21T08:15:28.984Z,26.25
2023-04-21T08:17:58.978Z,25.52
2023-04-21T08:20:27.738Z,25.33
2023-04-21T08:22:56.196Z,25.88
2023-04-21T08:25:24.880Z,25.10
2023-04-21T08:27:53.466Z,25.88
2023-04-21T08:30:22.060Z,25.52
2023-04-21T08:32:50.621Z,26.48
2023-04-21T08:35:20.523Z,26.77
2023-04-21T08:37:50.104Z,27.20
2023-04-21T08:40:20.044Z,24.90
2023-04-21T08:42:48.873Z,24.75
2023-04-21T08:45:17.361Z,26.08
2023-04-21T08:47:46.034Z,27.48
2023-04-21T08:50:15.805Z,26.75
2023-04-21T08:52:45.930Z,25.70
2023-04-21T08:55:14.920Z,24.77
2023-04-21T08:57:43.463Z,25.65
2023-04-21T09:00:12.649Z,23.35
2023-04-21T09:03:00.093Z,22.45
2023-04-21T09:05:32.073Z,22.38
2023-04-21T09:08:11.008Z,21.75
2023-04-21T09:10:46.432Z,21.98
2023-04-21T09:13:15.230Z,21.15
2023-04-21T09:15:44.003Z,20.63
2023-04-21T09:18:14.548Z,21.63
2023-04-21T09:20:43.742Z,21.48
2023-04-21T09:23:13.882Z,21.02
2023-04-21T09:25:43.107Z,21.13
2023-04-21T09:28:11.921Z,21.38
2023-04-21T09:30:40.953Z,21.17
2023-04-21T09:33:20.209Z,23.48
2023-04-21T09:35:56.225Z,21.00
2023-04-21T09:38:26.253Z,21.17
2023-04-21T09:40:58.920Z,21.02
2023-04-21T09:43:27.535Z,19.67
2023-04-21T09:45:56.438Z,18.23
2023-04-21T09:48:28.702Z,20.38
2023-04-21T09:53:30.802Z,20.15
2023-04-21T09:56:00.460Z,20.23
2023-04-21T09:58:30.320Z,20.85
2023-04-21T10:00:59.288Z,19.65
2023-04-21T10:03:30.125Z,19.17
2023-04-21T10:05:58.944Z,19.40
2023-04-21T10:08:27.524Z,19.73
2023-04-21T10:10:57.356Z,20.52
2023-04-21T10:13:26.319Z,18.92
2023-04-21T10:16:03.669Z,19.02
2023-04-21T10:18:32.387Z,18.33
2023-04-21T10:21:03.802Z,17.80
2023-04-21T10:23:33.342Z,17.75
2023-04-21T10:26:07.938Z,19.58
2023-04-21T10:28:46.958Z,19.60
2023-04-21T10:31:22.944Z,18.73
2023-04-21T10:34:11.182Z,20.15
2023-04-21T10:36:44.815Z,18.35
2023-04-21T10:39:15.698Z,19.02
2023-04-21T10:41:46.370Z,18.05
2023-04-21T10:44:15.846Z,19.42
2023-04-21T10:46:47.608Z,19.20
2023-04-21T10:49:23.249Z,19.75
2023-04-21T10:52:08.194Z,19.67
2023-04-21T10:54:42.725Z,20.05
2023-04-21T10:57:12.948Z,20.05
2023-04-21T10:59:41.542Z,20.83
2023-04-21T11:02:10.438Z,18.27
2023-04-21T11:04:40.432Z,19.00
2023-04-21T11:07:09.476Z,18.83
2023-04-21T11:09:38.338Z,20.10
2023-04-21T11:12:08.080Z,19.05
2023-04-21T11:14:38.829Z,20.13
2023-04-21T11:17:08.046Z,19.55
2023-04-21T11:19:36.644Z,20.52
2023-04-21T11:22:05.900Z,18.88
2023-04-21T11:24:34.509Z,20.10
2023-04-21T11:27:02.970Z,19.35
2023-04-21T11:29:31.549Z,21.08
2023-04-21T11:32:01.359Z,21.42
2023-04-21T11:34:29.814Z,20.63
2023-04-21T11:36:58.254Z,20.00
2023-04-21T11:39:26.673Z,19.85
2023-04-21T11:41:55.133Z,19.77
2023-04-21T11:44:33.213Z,19.48
2023-04-21T11:47:03.246Z,20.17
2023-04-21T11:49:32.336Z,18.65
2023-04-21T11:52:00.840Z,20.92
2023-04-21T11:54:31.174Z,21.63
2023-04-21T11:57:01.268Z,20.50
2023-04-21T11:59:31.045Z,19.23
2023-04-21T12:01:59.561Z,19.40
2023-04-21T12:04:30.820Z,19.80
2023-04-21T12:07:01.484Z,19.92
2023-04-21T12:09:30.304Z,19.05
2023-04-21T12:11:59.935Z,18.92
2023-04-21T12:14:28.414Z,17.80
2023-04-21T12:16:58.063Z,18.25
2023-04-21T12:19:27.058Z,17.63
2023-04-21T12:21:57.826Z,17.17
2023-04-21T12:24:26.516Z,16.90
2023-04-21T12:26:55.950Z,17.10
2023-04-21T12:29:24.463Z,16.45
2023-04-21T12:31:53.100Z,16.42
2023-04-21T12:34:21.619Z,15.68
2023-04-21T12:36:50.042Z,15.73
2023-04-21T12:39:20.492Z,15.85
2023-04-21T12:41:48.912Z,15.60
2023-04-21T12:44:17.366Z,15.55
2023-04-21T12:46:45.834Z,14.93
2023-04-21T12:49:15.763Z,14.73
2023-04-21T12:51:44.385Z,13.88
2023-04-21T12:54:12.858Z,14.85
2023-04-21T12:56:42.857Z,14.82
2023-04-21T12:59:11.875Z,13.73
2023-04-21T13:01:40.611Z,12.88
2023-04-21T13:04:09.578Z,13.13
2023-04-21T13:06:40.109Z,13.85
2023-04-21T13:09:08.756Z,13.65
2023-04-21T13:11:37.188Z,14.02
2023-04-21T13:14:07.053Z,13.52
2023-04-21T13:16:35.813Z,12.75
2023-04-21T13:19:04.909Z,12.65
2023-04-21T13:21:33.362Z,13.05
2023-04-21T13:24:02.908Z,12.52
2023-04-21T13:26:33.675Z,13.00
2023-04-21T13:29:02.676Z,12.40
2023-04-21T13:31:32.691Z,12.95
2023-04-21T13:34:01.344Z,11.50
2023-04-21T13:36:29.778Z,12.15
2023-04-21T13:38:58.262Z,11.73
2023-04-21T13:41:26.694Z,11.32
2023-04-21T13:43:55.208Z,11.93
2023-04-21T13:46:23.950Z,11.88
2023-04-21T13:48:54.503Z,12.00
2023-04-21T13:51:23.520Z,11.85
2023-04-21T13:53:52.010Z,12.23
2023-04-21T13:56:20.538Z,11.75
2023-04-21T13:58:49.221Z,10.80
2023-04-21T14:01:20.699Z,11.80
2023-04-21T14:03:50.106Z,11.43
2023-04-21T14:06:20.095Z,11.18
2023-04-21T14:08:48.625Z,12.30
2023-04-21T14:11:17.143Z,11.20
2023-04-21T14:13:59.933Z,11.55
2023-04-21T14:16:34.574Z,11.10
2023-04-21T14:19:03.435Z,10.27
2023-04-21T14:21:33.524Z,11.07
2023-04-21T14:24:02.039Z,10.43
2023-04-21T14:26:33.442Z,10.32
2023-04-21T14:29:02.019Z,10.65
2023-04-21T14:31:30.589Z,10.35
2023-04-21T14:33:59.131Z,10.40
2023-04-21T14:36:28.037Z,9.80
2023-04-21T14:38:57.931Z,9.88
2023-04-21T14:41:26.481Z,9.35
2023-04-21T14:43:56.771Z,8.55
2023-04-21T14:46:25.339Z,9.02
2023-04-21T14:48:53.961Z,7.05
2023-04-21T14:51:22.698Z,7.82
2023-04-21T14:53:51.298Z,7.43
2023-04-21T14:56:21.395Z,7.35
2023-04-21T14:58:50.020Z,7.00
2023-04-21T15:01:18.544Z,7.40
2023-04-21T15:03:47.205Z,8.27
2023-04-21T15:06:16.350Z,7.07
2023-04-21T15:08:44.842Z,7.35
2023-04-21T15:11:13.516Z,7.38
2023-04-21T15:13:43.507Z,7.50
2023-04-21T15:16:12.048Z,7.13
2023-04-21T15:18:41.114Z,6.60
2023-04-21T15:21:09.673Z,5.75
2023-04-21T15:23:38.109Z,6.30
2023-04-21T15:26:06.667Z,5.57
2023-04-21T15:28:36.061Z,5.72
2023-04-21T15:31:07.266Z,5.97
2023-04-21T15:33:37.788Z,5.60
2023-04-21T15:36:06.236Z,5.80
2023-04-21T15:38:34.701Z,5.57
2023-04-21T15:41:03.164Z,5.20
2023-04-21T15:43:31.706Z,5.40
2023-04-21T15:46:00.214Z,5.70
2023-04-21T15:48:30.881Z,6.00
2023-04-21T15:50:59.705Z,5.43
2023-04-21T15:53:28.407Z,5.60
2023-04-21T15:55:56.866Z,5.80
2023-04-21T15:58:25.382Z,5.75
2023-04-21T16:00:53.899Z,5.90
2023-04-21T16:03:22.616Z,5.60
2023-04-21T16:05:52.805Z,6.20
2023-04-21T16:08:21.647Z,5.43
2023-04-21T16:10:50.247Z,5.95
2023-04-21T16:13:19.376Z,5.32
2023-04-21T16:15:47.958Z,5.60
2023-04-21T16:18:16.582Z,5.28
2023-04-21T16:20:47.220Z,5.13
2023-04-21T16:23:17.469Z,5.45
2023-04-21T16:25:45.880Z,5.60
2023-04-21T16:28:14.385Z,5.75
2023-04-21T16:30:44.029Z,5.80
2023-04-21T16:33:13.228Z,5.30
2023-04-21T16:35:41.960Z,5.15
2023-04-21T16:38:10.698Z,5.63
2023-04-21T16:40:40.299Z,5.90
2023-04-21T16:43:10.179Z,5.68
2023-04-21T16:45:38.898Z,5.10
2023-04-21T16:48:07.632Z,5.53
2023-04-21T16:50:36.181Z,5.15
2023-04-21T16:53:04.986Z,4.85
2023-04-21T16:55:33.451Z,5.07
2023-04-21T16:58:01.980Z,5.03
2023-04-21T17:00:31.941Z,4.70
2023-04-21T17:03:00.939Z,4.78
2023-04-21T17:05:29.620Z,7.53
2023-04-21T17:07:58.364Z,5.97
2023-04-21T17:10:28.000Z,5.80
2023-04-21T17:12:56.501Z,5.22
2023-04-21T17:15:25.050Z,4.82
2023-04-21T17:17:54.904Z,5.07
2023-04-21T17:20:23.360Z,5.53
2023-04-21T17:22:52.350Z,5.55
2023-04-21T17:25:20.820Z,4.82
2023-04-21T17:27:49.559Z,4.47
2023-04-21T17:30:18.981Z,4.35
2023-04-21T17:32:47.457Z,4.10
2023-04-21T17:35:17.418Z,3.13
2023-04-21T17:37:46.163Z,3.40
2023-04-21T17:40:14.685Z,3.10
2023-04-21T17:42:43.408Z,3.03
2023-04-21T17:45:12.262Z,3.58
2023-04-21T17:47:40.882Z,3.47
2023-04-21T17:50:11.629Z,4.05
2023-04-21T17:52:41.906Z,3.67
2023-04-21T17:55:10.629Z,3.75
2023-04-21T17:57:39.077Z,3.85
2023-04-21T18:00:08.444Z,4.18
2023-04-21T18:02:37.152Z,4.13
2023-04-21T18:05:06.642Z,4.72
2023-04-21T18:07:35.277Z,3.83
2023-04-21T18:10:05.421Z,3.88
2023-04-21T18:12:34.094Z,3.33
2023-04-21T18:15:02.876Z,3.42
2023-04-21T18:17:31.323Z,4.20
2023-04-21T18:19:59.957Z,3.30
2023-04-21T18:22:28.536Z,3.33
2023-04-21T18:24:57.032Z,3.70
2023-04-21T18:27:26.993Z,3.42
2023-04-21T18:29:55.451Z,3.88
2023-04-21T18:32:24.019Z,3.63
2023-04-21T18:34:52.522Z,3.80
2023-04-21T18:37:21.007Z,4.10
2023-04-21T18:39:49.464Z,3.53
2023-04-21T18:42:17.962Z,4.03
2023-04-21T18:44:48.314Z,3.65
2023-04-21T18:47:16.858Z,3.63
2023-04-21T18:49:45.398Z,4.10
2023-04-21T18:52:14.103Z,4.25
2023-04-21T18:54:42.603Z,4.10
2023-04-21T18:57:11.053Z,4.50
2023-04-21T18:59:39.552Z,4.60
2023-04-21T19:02:10.016Z,4.70
2023-04-21T19:04:38.708Z,4.57
2023-04-21T19:07:09.987Z,4.95
2023-04-21T19:09:38.595Z,4.47
2023-04-21T19:12:07.263Z,4.68
2023-04-21T19:14:46.029Z,4.38
2023-04-21T19:17:17.108Z,4.68
2023-04-21T19:19:45.595Z,4.50
2023-04-21T19:22:14.458Z,5.60
2023-04-21T19:24:43.074Z,5.50
2023-04-21T19:27:11.881Z,5.22
2023-04-21T19:29:40.525Z,4.85
2023-04-21T19:32:09.188Z,5.70
2023-04-21T19:34:39.451Z,5.40
2023-04-21T19:37:08.291Z,5.68
2023-04-21T19:39:36.807Z,5.90
2023-04-21T19:42:06.522Z,4.45
2023-04-21T19:44:35.071Z,2.72
2023-04-21T19:47:03.984Z,2.60
2023-04-21T19:49:32.474Z,2.72
2023-04-21T19:52:02.350Z,2.97
2023-04-21T19:54:31.054Z,2.60
2023-04-21T19:56:59.626Z,2.67
2023-04-21T19:59:28.111Z,2.17
2023-04-21T20:01:56.910Z,2.33
2023-04-21T20:04:25.678Z,2.10
2023-04-21T20:06:54.393Z,1.88
2023-04-21T20:09:24.233Z,2.28
2023-04-21T20:11:52.672Z,2.80
2023-04-21T20:14:21.359Z,2.63
2023-04-21T20:16:50.172Z,2.42
2023-04-21T20:19:19.003Z,2.80
2023-04-21T20:21:47.614Z,3.08
2023-04-21T20:24:18.689Z,3.00
2023-04-21T20:26:48.534Z,3.17
2023-04-21T20:29:17.078Z,2.70
2023-04-21T20:31:46.537Z,2.83
2023-04-21T20:34:15.158Z,3.10
2023-04-21T20:36:43.899Z,3.15
2023-04-21T20:39:14.429Z,2.88
2023-04-21T20:41:45.704Z,2.95
2023-04-21T20:44:16.818Z,3.10
2023-04-21T20:46:45.638Z,3.30
2023-04-21T20:49:14.223Z,3.10
2023-04-21T20:51:43.158Z,3.28
2023-04-21T20:54:11.592Z,3.22
2023-04-21T20:56:40.082Z,3.00
2023-04-21T20:59:08.573Z,3.17
2023-04-21T21:01:41.234Z,3.22
2023-04-21T21:04:10.248Z,3.40
2023-04-21T21:06:38.989Z,3.33
2023-04-21T21:09:07.490Z,3.35
2023-04-21T21:11:35.926Z,3.17
2023-04-21T21:14:04.513Z,3.35
2023-04-21T21:16:36.147Z,3.25
2023-04-21T21:19:06.226Z,3.80
2023-04-21T21:21:34.736Z,3.83
2023-04-21T21:24:03.210Z,3.20
2023-04-21T21:26:31.698Z,4.15
2023-04-21T21:29:00.175Z,3.80
2023-04-21T21:31:28.656Z,4.15
2023-04-21T21:33:58.183Z,4.25
2023-04-21T21:36:28.019Z,3.90
2023-04-21T21:38:56.509Z,3.80
2023-04-21T21:41:25.042Z,3.95
2023-04-21T21:43:53.537Z,3.90
2023-04-21T21:46:22.263Z,4.68
2023-04-21T21:48:50.830Z,4.35
2023-04-21T21:51:19.699Z,4.80
2023-04-21T21:53:49.529Z,5.00
2023-04-21T21:56:17.959Z,4.78
2023-04-21T21:58:46.462Z,4.65
2023-04-21T22:01:18.015Z,4.88
2023-04-21T22:03:47.360Z,4.25
2023-04-21T22:06:17.386Z,5.10
2023-04-21T22:08:46.086Z,4.60
2023-04-21T22:11:16.455Z,4.50
2023-04-21T22:13:44.917Z,4.53
2023-04-21T22:16:13.499Z,5.28
2023-04-21T22:18:43.034Z,4.93
2023-04-21T22:21:11.489Z,5.18
2023-04-21T22:23:39.926Z,5.57
2023-04-21T22:26:09.300Z,5.47
2023-04-21T22:28:41.679Z,6.05
2023-04-21T22:31:10.410Z,6.22
2023-04-21T22:33:39.324Z,6.70
2023-04-21T22:36:09.854Z,6.18
2023-04-21T22:38:38.659Z,6.20
2023-04-21T22:41:07.350Z,6.28
2023-04-21T22:43:36.032Z,6.13
2023-04-21T22:46:06.219Z,6.38
2023-04-21T22:48:36.237Z,6.03
2023-04-21T22:51:04.767Z,5.75
2023-04-21T22:53:33.489Z,5.93
2023-04-21T22:56:01.994Z,5.80
2023-04-21T22:58:30.454Z,5.78
2023-04-21T23:00:58.931Z,5.43
2023-04-21T23:03:28.925Z,6.03
2023-04-21T23:05:57.542Z,5.75
2023-04-21T23:08:26.325Z,5.38
2023-04-21T23:10:54.736Z,5.45
2023-04-21T23:13:23.214Z,5.93
2023-04-21T23:15:51.664Z,5.55
2023-04-21T23:18:20.136Z,6.15
2023-04-21T23:20:49.953Z,5.78
2023-04-21T23:23:18.432Z,5.63
2023-04-21T23:25:46.968Z,5.95
2023-04-21T23:28:15.912Z,6.68
2023-04-21T23:30:44.320Z,5.70
2023-04-21T23:33:12.817Z,5.93
2023-04-21T23:35:41.293Z,5.53
2023-04-21T23:38:11.151Z,6.35
2023-04-21T23:40:39.585Z,5.75
2023-04-21T23:43:08.042Z,6.57
2023-04-21T23:45:36.461Z,6.28
2023-04-21T23:48:04.978Z,6.35
2023-04-21T23:50:33.507Z,6.50
2023-04-21T23:53:02.027Z,6.43
2023-04-21T23:55:31.894Z,6.05
2023-04-21T23:58:00.669Z,6.28
